sensor_id;sensor_type;location;lat;lon;timestamp;P1;durP1;ratioP1;P2;durP2;ratioP2
43606;SDS011;29197;44.788;10.366;2023-02-22T00:02:41;47.35;;;31.08;;
43606;SDS011;29197;44.788;10.366;2023-02-22T00:05:30;65.40;;;39.10;;
43606;SDS011;29197;44.788;10.366;2023-02-22T00:08:21;63.43;;;38.40;;
43606;SDS011;29197;44.788;10.366;2023-02-22T00:11:11;59.78;;;37.38;;
43606;SDS011;29197;44.788;10.366;2023-02-22T00:14:00;68.57;;;41.90;;
43606;SDS011;29197;44.788;10.366;2023-02-22T00:16:49;63.40;;;39.00;;
43606;SDS011;29197;44.788;10.366;2023-02-22T00:19:37;55.13;;;35.27;;
43606;SDS011;29197;44.788;10.366;2023-02-22T00:22:26;57.75;;;35.80;;
43606;SDS011;29197;44.788;10.366;2023-02-22T00:25:16;54.92;;;35.58;;
43606;SDS011;29197;44.788;10.366;2023-02-22T00:28:06;64.80;;;39.08;;
43606;SDS011;29197;44.788;10.366;2023-02-22T00:30:55;58.63;;;38.47;;
43606;SDS011;29197;44.788;10.366;2023-02-22T00:33:43;53.10;;;34.22;;
43606;SDS011;29197;44.788;10.366;2023-02-22T00:36:31;53.17;;;33.50;;
43606;SDS011;29197;44.788;10.366;2023-02-22T00:39:20;52.72;;;33.40;;
43606;SDS011;29197;44.788;10.366;2023-02-22T00:42:10;74.70;;;43.92;;
43606;SDS011;29197;44.788;10.366;2023-02-22T00:44:58;61.47;;;37.72;;
43606;SDS011;29197;44.788;10.366;2023-02-22T00:47:47;61.05;;;38.20;;
43606;SDS011;29197;44.788;10.366;2023-02-22T00:50:36;54.83;;;34.15;;
43606;SDS011;29197;44.788;10.366;2023-02-22T00:53:25;53.83;;;33.22;;
43606;SDS011;29197;44.788;10.366;2023-02-22T00:56:13;52.13;;;32.85;;
43606;SDS011;29197;44.788;10.366;2023-02-22T00:59:03;54.17;;;35.05;;
43606;SDS011;29197;44.788;10.366;2023-02-22T01:01:52;51.83;;;32.35;;
43606;SDS011;29197;44.788;10.366;2023-02-22T01:04:40;50.22;;;33.10;;
43606;SDS011;29197;44.788;10.366;2023-02-22T01:07:29;49.85;;;32.75;;
43606;SDS011;29197;44.788;10.366;2023-02-22T01:10:18;52.33;;;33.87;;
43606;SDS011;29197;44.788;10.366;2023-02-22T01:13:09;51.25;;;34.72;;
43606;SDS011;29197;44.788;10.366;2023-02-22T01:16:00;53.80;;;32.97;;
43606;SDS011;29197;44.788;10.366;2023-02-22T01:18:48;49.83;;;33.60;;
43606;SDS011;29197;44.788;10.366;2023-02-22T01:21:38;53.25;;;33.10;;
43606;SDS011;29197;44.788;10.366;2023-02-22T01:24:27;69.18;;;40.35;;
43606;SDS011;29197;44.788;10.366;2023-02-22T01:27:15;71.47;;;41.72;;
43606;SDS011;29197;44.788;10.366;2023-02-22T01:30:04;72.63;;;41.03;;
43606;SDS011;29197;44.788;10.366;2023-02-22T01:32:56;71.10;;;41.30;;
43606;SDS011;29197;44.788;10.366;2023-02-22T01:35:45;64.28;;;39.13;;
43606;SDS011;29197;44.788;10.366;2023-02-22T01:38:34;62.40;;;38.70;;
43606;SDS011;29197;44.788;10.366;2023-02-22T01:41:22;65.50;;;38.75;;
43606;SDS011;29197;44.788;10.366;2023-02-22T01:44:18;62.97;;;40.22;;
43606;SDS011;29197;44.788;10.366;2023-02-22T01:47:08;65.68;;;39.97;;
43606;SDS011;29197;44.788;10.366;2023-02-22T01:49:58;61.63;;;37.83;;
43606;SDS011;29197;44.788;10.366;2023-02-22T01:52:46;64.57;;;40.85;;
43606;SDS011;29197;44.788;10.366;2023-02-22T01:55:36;65.22;;;40.30;;
43606;SDS011;29197;44.788;10.366;2023-02-22T01:58:26;67.32;;;40.42;;
43606;SDS011;29197;44.788;10.366;2023-02-22T02:01:17;63.10;;;40.55;;
43606;SDS011;29197;44.788;10.366;2023-02-22T02:04:09;70.32;;;42.58;;
43606;SDS011;29197;44.788;10.366;2023-02-22T02:07:04;68.63;;;43.40;;
43606;SDS011;29197;44.788;10.366;2023-02-22T02:09:56;72.15;;;44.15;;
43606;SDS011;29197;44.788;10.366;2023-02-22T02:12:46;70.00;;;42.97;;
43606;SDS011;29197;44.788;10.366;2023-02-22T02:15:36;75.18;;;45.33;;
43606;SDS011;29197;44.788;10.366;2023-02-22T02:18:25;76.70;;;47.80;;
43606;SDS011;29197;44.788;10.366;2023-02-22T02:25:01;92.88;;;54.75;;
43606;SDS011;29197;44.788;10.366;2023-02-22T02:28:26;93.47;;;55.20;;
43606;SDS011;29197;44.788;10.366;2023-02-22T02:34:54;94.95;;;56.20;;
43606;SDS011;29197;44.788;10.366;2023-02-22T02:37:52;92.75;;;56.30;;
43606;SDS011;29197;44.788;10.366;2023-02-22T02:40:45;113.07;;;64.03;;
43606;SDS011;29197;44.788;10.366;2023-02-22T02:43:39;109.88;;;64.88;;
43606;SDS011;29197;44.788;10.366;2023-02-22T02:46:33;96.35;;;58.53;;
43606;SDS011;29197;44.788;10.366;2023-02-22T02:49:24;105.97;;;61.03;;
43606;SDS011;29197;44.788;10.366;2023-02-22T02:52:18;98.03;;;58.28;;
43606;SDS011;29197;44.788;10.366;2023-02-22T02:55:10;101.32;;;60.17;;
43606;SDS011;29197;44.788;10.366;2023-02-22T02:57:59;102.80;;;60.42;;
43606;SDS011;29197;44.788;10.366;2023-02-22T03:00:50;117.95;;;67.93;;
43606;SDS011;29197;44.788;10.366;2023-02-22T03:03:46;109.75;;;64.18;;
43606;SDS011;29197;44.788;10.366;2023-02-22T03:06:56;97.95;;;58.88;;
43606;SDS011;29197;44.788;10.366;2023-02-22T03:10:01;106.13;;;63.75;;
43606;SDS011;29197;44.788;10.366;2023-02-22T03:13:22;122.60;;;71.25;;
43606;SDS011;29197;44.788;10.366;2023-02-22T03:16:14;104.07;;;61.45;;
43606;SDS011;29197;44.788;10.366;2023-02-22T03:19:05;101.65;;;60.33;;
43606;SDS011;29197;44.788;10.366;2023-02-22T03:21:59;102.55;;;59.97;;
43606;SDS011;29197;44.788;10.366;2023-02-22T03:24:50;105.55;;;61.55;;
43606;SDS011;29197;44.788;10.366;2023-02-22T03:27:44;97.93;;;58.13;;
43606;SDS011;29197;44.788;10.366;2023-02-22T03:30:35;112.60;;;65.28;;
43606;SDS011;29197;44.788;10.366;2023-02-22T03:33:26;101.10;;;60.38;;
43606;SDS011;29197;44.788;10.366;2023-02-22T03:36:20;106.85;;;63.25;;
43606;SDS011;29197;44.788;10.366;2023-02-22T03:39:10;102.93;;;62.50;;
43606;SDS011;29197;44.788;10.366;2023-02-22T03:42:03;116.95;;;67.78;;
43606;SDS011;29197;44.788;10.366;2023-02-22T03:44:54;113.82;;;67.82;;
43606;SDS011;29197;44.788;10.366;2023-02-22T03:47:45;101.53;;;60.03;;
43606;SDS011;29197;44.788;10.366;2023-02-22T03:50:36;97.80;;;59.88;;
43606;SDS011;29197;44.788;10.366;2023-02-22T03:53:25;95.60;;;56.93;;
43606;SDS011;29197;44.788;10.366;2023-02-22T03:56:17;106.18;;;62.30;;
43606;SDS011;29197;44.788;10.366;2023-02-22T03:59:08;113.80;;;64.22;;
43606;SDS011;29197;44.788;10.366;2023-02-22T04:01:58;115.30;;;66.03;;
43606;SDS011;29197;44.788;10.366;2023-02-22T04:04:47;102.18;;;59.97;;
43606;SDS011;29197;44.788;10.366;2023-02-22T04:07:37;97.27;;;58.10;;
43606;SDS011;29197;44.788;10.366;2023-02-22T04:10:25;100.78;;;58.70;;
43606;SDS011;29197;44.788;10.366;2023-02-22T04:13:14;128.38;;;73.07;;
43606;SDS011;29197;44.788;10.366;2023-02-22T04:16:03;111.65;;;64.55;;
43606;SDS011;29197;44.788;10.366;2023-02-22T04:18:53;99.45;;;60.35;;
43606;SDS011;29197;44.788;10.366;2023-02-22T04:21:42;135.00;;;75.45;;
43606;SDS011;29197;44.788;10.366;2023-02-22T04:24:30;130.05;;;74.90;;
43606;SDS011;29197;44.788;10.366;2023-02-22T04:27:19;125.55;;;72.90;;
43606;SDS011;29197;44.788;10.366;2023-02-22T04:30:08;128.63;;;70.32;;
43606;SDS011;29197;44.788;10.366;2023-02-22T04:32:58;107.90;;;62.50;;
43606;SDS011;29197;44.788;10.366;2023-02-22T04:35:48;102.88;;;59.90;;
43606;SDS011;29197;44.788;10.366;2023-02-22T04:38:37;96.22;;;57.75;;
43606;SDS011;29197;44.788;10.366;2023-02-22T04:41:25;112.10;;;66.97;;
43606;SDS011;29197;44.788;10.366;2023-02-22T04:44:14;134.68;;;74.07;;
43606;SDS011;29197;44.788;10.366;2023-02-22T04:47:03;106.60;;;63.10;;
43606;SDS011;29197;44.788;10.366;2023-02-22T04:49:52;97.93;;;58.00;;
43606;SDS011;29197;44.788;10.366;2023-02-22T04:52:42;105.03;;;60.47;;
43606;SDS011;29197;44.788;10.366;2023-02-22T04:55:31;136.90;;;75.45;;
43606;SDS011;29197;44.788;10.366;2023-02-22T04:58:20;133.60;;;72.93;;
43606;SDS011;29197;44.788;10.366;2023-02-22T05:01:09;107.88;;;63.63;;
43606;SDS011;29197;44.788;10.366;2023-02-22T05:03:58;102.32;;;59.00;;
43606;SDS011;29197;44.788;10.366;2023-02-22T05:06:47;99.78;;;58.55;;
43606;SDS011;29197;44.788;10.366;2023-02-22T05:09:37;95.15;;;55.40;;
43606;SDS011;29197;44.788;10.366;2023-02-22T05:12:25;94.65;;;55.22;;
43606;SDS011;29197;44.788;10.366;2023-02-22T05:15:15;91.63;;;54.60;;
43606;SDS011;29197;44.788;10.366;2023-02-22T05:18:04;89.05;;;53.25;;
43606;SDS011;29197;44.788;10.366;2023-02-22T05:20:53;93.10;;;55.33;;
43606;SDS011;29197;44.788;10.366;2023-02-22T05:23:42;93.43;;;55.03;;
43606;SDS011;29197;44.788;10.366;2023-02-22T05:26:32;91.03;;;54.63;;
43606;SDS011;29197;44.788;10.366;2023-02-22T05:29:20;96.13;;;56.72;;
43606;SDS011;29197;44.788;10.366;2023-02-22T05:32:09;95.32;;;56.75;;
43606;SDS011;29197;44.788;10.366;2023-02-22T05:34:58;99.75;;;58.97;;
43606;SDS011;29197;44.788;10.366;2023-02-22T05:37:47;97.40;;;56.47;;
43606;SDS011;29197;44.788;10.366;2023-02-22T05:40:36;94.72;;;56.00;;
43606;SDS011;29197;44.788;10.366;2023-02-22T05:43:26;95.10;;;56.38;;
43606;SDS011;29197;44.788;10.366;2023-02-22T05:46:14;91.80;;;55.20;;
43606;SDS011;29197;44.788;10.366;2023-02-22T05:49:03;94.13;;;55.83;;
43606;SDS011;29197;44.788;10.366;2023-02-22T05:51:51;87.70;;;53.35;;
43606;SDS011;29197;44.788;10.366;2023-02-22T05:54:41;90.55;;;55.17;;
43606;SDS011;29197;44.788;10.366;2023-02-22T05:57:30;94.38;;;55.80;;
43606;SDS011;29197;44.788;10.366;2023-02-22T06:00:21;93.30;;;56.03;;
43606;SDS011;29197;44.788;10.366;2023-02-22T06:03:11;91.25;;;53.97;;
43606;SDS011;29197;44.788;10.366;2023-02-22T06:05:59;94.63;;;55.47;;
43606;SDS011;29197;44.788;10.366;2023-02-22T06:08:48;112.28;;;65.13;;
43606;SDS011;29197;44.788;10.366;2023-02-22T06:11:36;99.93;;;58.60;;
43606;SDS011;29197;44.788;10.366;2023-02-22T06:14:25;92.85;;;55.40;;
43606;SDS011;29197;44.788;10.366;2023-02-22T06:17:15;91.22;;;53.97;;
43606;SDS011;29197;44.788;10.366;2023-02-22T06:20:06;89.23;;;52.23;;
43606;SDS011;29197;44.788;10.366;2023-02-22T06:22:56;92.80;;;54.65;;
43606;SDS011;29197;44.788;10.366;2023-02-22T06:25:45;92.60;;;53.95;;
43606;SDS011;29197;44.788;10.366;2023-02-22T06:28:33;99.57;;;58.80;;
43606;SDS011;29197;44.788;10.366;2023-02-22T06:31:22;93.40;;;54.65;;
43606;SDS011;29197;44.788;10.366;2023-02-22T06:34:12;84.75;;;50.35;;
43606;SDS011;29197;44.788;10.366;2023-02-22T06:37:00;95.93;;;56.17;;
43606;SDS011;29197;44.788;10.366;2023-02-22T06:39:49;79.68;;;49.88;;
43606;SDS011;29197;44.788;10.366;2023-02-22T06:42:37;86.90;;;51.67;;
43606;SDS011;29197;44.788;10.366;2023-02-22T06:45:26;85.47;;;51.17;;
43606;SDS011;29197;44.788;10.366;2023-02-22T06:48:15;83.60;;;49.93;;
43606;SDS011;29197;44.788;10.366;2023-02-22T06:51:06;78.82;;;48.97;;
43606;SDS011;29197;44.788;10.366;2023-02-22T06:53:55;79.70;;;47.73;;
43606;SDS011;29197;44.788;10.366;2023-02-22T06:56:44;83.18;;;49.22;;
43606;SDS011;29197;44.788;10.366;2023-02-22T06:59:32;78.07;;;47.80;;
43606;SDS011;29197;44.788;10.366;2023-02-22T07:02:21;78.72;;;47.88;;
43606;SDS011;29197;44.788;10.366;2023-02-22T07:05:09;78.43;;;48.95;;
43606;SDS011;29197;44.788;10.366;2023-02-22T07:08:03;99.27;;;60.87;;
43606;SDS011;29197;44.788;10.366;2023-02-22T07:10:54;97.20;;;61.38;;
43606;SDS011;29197;44.788;10.366;2023-02-22T07:13:42;96.10;;;57.90;;
43606;SDS011;29197;44.788;10.366;2023-02-22T07:16:31;89.05;;;52.03;;
43606;SDS011;29197;44.788;10.366;2023-02-22T07:19:20;92.63;;;55.58;;
43606;SDS011;29197;44.788;10.366;2023-02-22T07:22:09;93.15;;;54.03;;
43606;SDS011;29197;44.788;10.366;2023-02-22T07:24:59;82.20;;;49.63;;
43606;SDS011;29197;44.788;10.366;2023-02-22T07:27:47;79.18;;;48.63;;
43606;SDS011;29197;44.788;10.366;2023-02-22T07:30:38;78.47;;;48.33;;
43606;SDS011;29197;44.788;10.366;2023-02-22T07:33:26;71.40;;;44.67;;
43606;SDS011;29197;44.788;10.366;2023-02-22T07:36:15;73.37;;;45.60;;
43606;SDS011;29197;44.788;10.366;2023-02-22T07:39:05;75.53;;;48.40;;
43606;SDS011;29197;44.788;10.366;2023-02-22T07:41:55;75.28;;;46.40;;
43606;SDS011;29197;44.788;10.366;2023-02-22T07:44:44;83.15;;;50.70;;
43606;SDS011;29197;44.788;10.366;2023-02-22T07:47:33;83.90;;;49.65;;
43606;SDS011;29197;44.788;10.366;2023-02-22T07:50:22;87.33;;;52.17;;
43606;SDS011;29197;44.788;10.366;2023-02-22T07:53:13;100.35;;;58.92;;
43606;SDS011;29197;44.788;10.366;2023-02-22T07:56:04;87.50;;;52.40;;
43606;SDS011;29197;44.788;10.366;2023-02-22T07:58:55;87.15;;;52.42;;
43606;SDS011;29197;44.788;10.366;2023-02-22T08:01:44;90.63;;;52.38;;
43606;SDS011;29197;44.788;10.366;2023-02-22T08:04:35;90.10;;;52.63;;
43606;SDS011;29197;44.788;10.366;2023-02-22T08:07:25;80.38;;;48.63;;
43606;SDS011;29197;44.788;10.366;2023-02-22T08:10:14;85.10;;;50.40;;
43606;SDS011;29197;44.788;10.366;2023-02-22T08:13:03;75.95;;;47.88;;
43606;SDS011;29197;44.788;10.366;2023-02-22T08:15:54;82.88;;;49.13;;
43606;SDS011;29197;44.788;10.366;2023-02-22T08:18:42;73.43;;;44.20;;
43606;SDS011;29197;44.788;10.366;2023-02-22T08:21:31;80.00;;;47.90;;
43606;SDS011;29197;44.788;10.366;2023-02-22T08:24:19;77.07;;;46.85;;
43606;SDS011;29197;44.788;10.366;2023-02-22T08:27:08;82.85;;;49.38;;
43606;SDS011;29197;44.788;10.366;2023-02-22T08:29:56;88.13;;;52.20;;
43606;SDS011;29197;44.788;10.366;2023-02-22T08:32:46;90.10;;;53.97;;
43606;SDS011;29197;44.788;10.366;2023-02-22T08:35:35;84.82;;;52.72;;
43606;SDS011;29197;44.788;10.366;2023-02-22T08:38:27;70.45;;;44.22;;
43606;SDS011;29197;44.788;10.366;2023-02-22T08:41:17;69.35;;;43.10;;
43606;SDS011;29197;44.788;10.366;2023-02-22T08:44:05;73.97;;;46.05;;
43606;SDS011;29197;44.788;10.366;2023-02-22T08:46:54;81.65;;;48.65;;
43606;SDS011;29197;44.788;10.366;2023-02-22T08:49:45;81.38;;;49.13;;
43606;SDS011;29197;44.788;10.366;2023-02-22T08:52:33;81.72;;;50.22;;
43606;SDS011;29197;44.788;10.366;2023-02-22T08:55:23;80.97;;;49.58;;
43606;SDS011;29197;44.788;10.366;2023-02-22T08:58:12;86.35;;;50.58;;
43606;SDS011;29197;44.788;10.366;2023-02-22T09:01:01;75.88;;;47.22;;
43606;SDS011;29197;44.788;10.366;2023-02-22T09:03:50;78.18;;;47.17;;
43606;SDS011;29197;44.788;10.366;2023-02-22T09:06:40;83.07;;;48.90;;
43606;SDS011;29197;44.788;10.366;2023-02-22T09:09:29;92.47;;;56.42;;
43606;SDS011;29197;44.788;10.366;2023-02-22T09:12:17;86.93;;;53.30;;
43606;SDS011;29197;44.788;10.366;2023-02-22T09:15:06;89.65;;;53.88;;
43606;SDS011;29197;44.788;10.366;2023-02-22T09:17:55;91.85;;;54.45;;
43606;SDS011;29197;44.788;10.366;2023-02-22T09:20:44;88.28;;;53.45;;
43606;SDS011;29197;44.788;10.366;2023-02-22T09:23:34;84.97;;;50.60;;
43606;SDS011;29197;44.788;10.366;2023-02-22T09:26:22;90.18;;;56.88;;
43606;SDS011;29197;44.788;10.366;2023-02-22T09:29:11;86.97;;;57.83;;
43606;SDS011;29197;44.788;10.366;2023-02-22T09:31:59;83.50;;;52.97;;
43606;SDS011;29197;44.788;10.366;2023-02-22T09:34:49;91.30;;;55.93;;
43606;SDS011;29197;44.788;10.366;2023-02-22T09:37:38;100.43;;;59.28;;
43606;SDS011;29197;44.788;10.366;2023-02-22T09:40:31;96.15;;;57.63;;
43606;SDS011;29197;44.788;10.366;2023-02-22T09:43:29;94.53;;;58.70;;
43606;SDS011;29197;44.788;10.366;2023-02-22T09:46:26;102.70;;;61.20;;
43606;SDS011;29197;44.788;10.366;2023-02-22T09:49:21;97.80;;;57.70;;
43606;SDS011;29197;44.788;10.366;2023-02-22T09:52:13;99.22;;;57.70;;
43606;SDS011;29197;44.788;10.366;2023-02-22T09:55:06;105.50;;;62.15;;
43606;SDS011;29197;44.788;10.366;2023-02-22T09:58:05;101.25;;;60.72;;
43606;SDS011;29197;44.788;10.366;2023-02-22T10:01:04;98.50;;;58.67;;
43606;SDS011;29197;44.788;10.366;2023-02-22T10:04:08;103.70;;;61.83;;
43606;SDS011;29197;44.788;10.366;2023-02-22T10:07:05;112.35;;;67.68;;
43606;SDS011;29197;44.788;10.366;2023-02-22T10:10:04;123.93;;;74.18;;
43606;SDS011;29197;44.788;10.366;2023-02-22T10:13:00;106.23;;;63.73;;
43606;SDS011;29197;44.788;10.366;2023-02-22T10:16:00;102.77;;;60.47;;
43606;SDS011;29197;44.788;10.366;2023-02-22T10:19:05;98.90;;;58.22;;
43606;SDS011;29197;44.788;10.366;2023-02-22T10:25:16;148.50;;;84.82;;
43606;SDS011;29197;44.788;10.366;2023-02-22T10:28:12;128.30;;;74.05;;
43606;SDS011;29197;44.788;10.366;2023-02-22T10:31:06;181.43;;;104.22;;
43606;SDS011;29197;44.788;10.366;2023-02-22T10:33:57;127.78;;;75.57;;
43606;SDS011;29197;44.788;10.366;2023-02-22T10:36:49;117.60;;;67.80;;
43606;SDS011;29197;44.788;10.366;2023-02-22T10:39:42;107.57;;;64.78;;
43606;SDS011;29197;44.788;10.366;2023-02-22T10:42:32;126.05;;;71.30;;
43606;SDS011;29197;44.788;10.366;2023-02-22T10:45:23;106.93;;;63.45;;
43606;SDS011;29197;44.788;10.366;2023-02-22T10:48:14;112.13;;;66.90;;
43606;SDS011;29197;44.788;10.366;2023-02-22T10:51:07;99.53;;;60.92;;
43606;SDS011;29197;44.788;10.366;2023-02-22T10:53:58;97.43;;;60.50;;
43606;SDS011;29197;44.788;10.366;2023-02-22T10:56:54;120.15;;;71.15;;
43606;SDS011;29197;44.788;10.366;2023-02-22T10:59:43;124.03;;;73.22;;
43606;SDS011;29197;44.788;10.366;2023-02-22T11:02:34;101.90;;;59.90;;
43606;SDS011;29197;44.788;10.366;2023-02-22T11:05:26;118.88;;;69.35;;
43606;SDS011;29197;44.788;10.366;2023-02-22T11:08:23;100.15;;;59.60;;
43606;SDS011;29197;44.788;10.366;2023-02-22T11:11:19;111.88;;;69.53;;
43606;SDS011;29197;44.788;10.366;2023-02-22T11:14:11;113.13;;;67.53;;
43606;SDS011;29197;44.788;10.366;2023-02-22T11:17:12;107.00;;;63.92;;
43606;SDS011;29197;44.788;10.366;2023-02-22T11:20:17;107.57;;;65.32;;
43606;SDS011;29197;44.788;10.366;2023-02-22T11:23:10;102.70;;;60.00;;
43606;SDS011;29197;44.788;10.366;2023-02-22T11:26:09;88.90;;;54.75;;
43606;SDS011;29197;44.788;10.366;2023-02-22T11:29:00;98.18;;;58.50;;
43606;SDS011;29197;44.788;10.366;2023-02-22T11:31:57;96.32;;;59.10;;
43606;SDS011;29197;44.788;10.366;2023-02-22T11:34:49;89.30;;;55.13;;
43606;SDS011;29197;44.788;10.366;2023-02-22T11:37:56;93.07;;;57.23;;
43606;SDS011;29197;44.788;10.366;2023-02-22T11:41:04;104.47;;;61.17;;
43606;SDS011;29197;44.788;10.366;2023-02-22T11:44:19;95.15;;;58.40;;
43606;SDS011;29197;44.788;10.366;2023-02-22T11:47:10;94.68;;;57.88;;
43606;SDS011;29197;44.788;10.366;2023-02-22T11:49:59;95.00;;;58.20;;
43606;SDS011;29197;44.788;10.366;2023-02-22T11:52:49;87.38;;;55.33;;
43606;SDS011;29197;44.788;10.366;2023-02-22T11:56:02;109.55;;;63.72;;
43606;SDS011;29197;44.788;10.366;2023-02-22T11:59:02;86.43;;;53.90;;
43606;SDS011;29197;44.788;10.366;2023-02-22T12:02:04;104.15;;;64.43;;
43606;SDS011;29197;44.788;10.366;2023-02-22T12:05:14;90.28;;;54.05;;
43606;SDS011;29197;44.788;10.366;2023-02-22T12:08:15;97.13;;;60.25;;
43606;SDS011;29197;44.788;10.366;2023-02-22T12:11:13;84.30;;;53.55;;
43606;SDS011;29197;44.788;10.366;2023-02-22T12:14:09;98.38;;;59.10;;
43606;SDS011;29197;44.788;10.366;2023-02-22T12:17:21;81.60;;;51.53;;
43606;SDS011;29197;44.788;10.366;2023-02-22T12:20:21;91.10;;;54.72;;
43606;SDS011;29197;44.788;10.366;2023-02-22T12:23:15;95.55;;;57.28;;
43606;SDS011;29197;44.788;10.366;2023-02-22T12:26:08;87.40;;;54.55;;
43606;SDS011;29197;44.788;10.366;2023-02-22T12:29:03;98.75;;;60.10;;
43606;SDS011;29197;44.788;10.366;2023-02-22T12:31:59;92.55;;;55.72;;
43606;SDS011;29197;44.788;10.366;2023-02-22T12:34:52;84.80;;;53.38;;
43606;SDS011;29197;44.788;10.366;2023-02-22T12:37:53;91.97;;;58.05;;
43606;SDS011;29197;44.788;10.366;2023-02-22T12:40:51;104.33;;;63.93;;
43606;SDS011;29197;44.788;10.366;2023-02-22T12:43:48;86.18;;;54.40;;
43606;SDS011;29197;44.788;10.366;2023-02-22T12:46:42;90.70;;;54.88;;
43606;SDS011;29197;44.788;10.366;2023-02-22T12:49:35;81.75;;;49.75;;
43606;SDS011;29197;44.788;10.366;2023-02-22T12:52:32;86.05;;;53.63;;
43606;SDS011;29197;44.788;10.366;2023-02-22T12:55:28;88.43;;;53.35;;
43606;SDS011;29197;44.788;10.366;2023-02-22T12:58:22;84.30;;;51.78;;
43606;SDS011;29197;44.788;10.366;2023-02-22T13:01:16;83.68;;;51.70;;
43606;SDS011;29197;44.788;10.366;2023-02-22T13:04:08;82.57;;;50.20;;
43606;SDS011;29197;44.788;10.366;2023-02-22T13:07:09;84.45;;;50.30;;
43606;SDS011;29197;44.788;10.366;2023-02-22T13:13:19;82.55;;;50.42;;
43606;SDS011;29197;44.788;10.366;2023-02-22T13:16:20;85.03;;;52.45;;
43606;SDS011;29197;44.788;10.366;2023-02-22T13:19:17;112.47;;;64.20;;
43606;SDS011;29197;44.788;10.366;2023-02-22T13:22:20;91.25;;;55.92;;
43606;SDS011;29197;44.788;10.366;2023-02-22T13:25:13;95.05;;;57.13;;
43606;SDS011;29197;44.788;10.366;2023-02-22T13:28:14;88.07;;;52.65;;
43606;SDS011;29197;44.788;10.366;2023-02-22T13:31:22;75.60;;;46.53;;
43606;SDS011;29197;44.788;10.366;2023-02-22T13:34:33;87.35;;;53.58;;
43606;SDS011;29197;44.788;10.366;2023-02-22T13:37:51;110.00;;;63.90;;
43606;SDS011;29197;44.788;10.366;2023-02-22T13:40:55;85.70;;;52.38;;
43606;SDS011;29197;44.788;10.366;2023-02-22T13:44:11;91.30;;;55.77;;
43606;SDS011;29197;44.788;10.366;2023-02-22T13:47:18;101.07;;;60.05;;
43606;SDS011;29197;44.788;10.366;2023-02-22T13:50:49;100.40;;;58.70;;
43606;SDS011;29197;44.788;10.366;2023-02-22T13:53:49;77.00;;;48.03;;
43606;SDS011;29197;44.788;10.366;2023-02-22T13:56:41;76.72;;;47.28;;
43606;SDS011;29197;44.788;10.366;2023-02-22T13:59:31;87.03;;;50.53;;
43606;SDS011;29197;44.788;10.366;2023-02-22T14:02:33;106.97;;;63.35;;
43606;SDS011;29197;44.788;10.366;2023-02-22T14:05:48;96.43;;;56.47;;
43606;SDS011;29197;44.788;10.366;2023-02-22T14:08:39;115.15;;;67.63;;
43606;SDS011;29197;44.788;10.366;2023-02-22T14:14:54;126.65;;;69.93;;
43606;SDS011;29197;44.788;10.366;2023-02-22T14:18:16;96.80;;;57.88;;
43606;SDS011;29197;44.788;10.366;2023-02-22T14:21:05;93.40;;;55.13;;
43606;SDS011;29197;44.788;10.366;2023-02-22T14:23:55;90.35;;;53.92;;
43606;SDS011;29197;44.788;10.366;2023-02-22T14:26:55;88.75;;;52.97;;
43606;SDS011;29197;44.788;10.366;2023-02-22T14:29:49;94.03;;;55.95;;
43606;SDS011;29197;44.788;10.366;2023-02-22T14:32:41;87.53;;;54.08;;
43606;SDS011;29197;44.788;10.366;2023-02-22T14:35:34;96.10;;;56.25;;
43606;SDS011;29197;44.788;10.366;2023-02-22T14:38:35;99.73;;;59.83;;
43606;SDS011;29197;44.788;10.366;2023-02-22T14:41:24;98.60;;;56.10;;
43606;SDS011;29197;44.788;10.366;2023-02-22T14:44:19;94.38;;;56.17;;
43606;SDS011;29197;44.788;10.366;2023-02-22T14:47:13;98.33;;;56.70;;
43606;SDS011;29197;44.788;10.366;2023-02-22T14:50:07;93.35;;;53.47;;
43606;SDS011;29197;44.788;10.366;2023-02-22T14:53:03;91.13;;;52.97;;
43606;SDS011;29197;44.788;10.366;2023-02-22T14:56:00;94.90;;;56.00;;
43606;SDS011;29197;44.788;10.366;2023-02-22T14:58:52;94.43;;;54.80;;
43606;SDS011;29197;44.788;10.366;2023-02-22T15:01:46;95.13;;;55.95;;
43606;SDS011;29197;44.788;10.366;2023-02-22T15:04:55;95.00;;;55.40;;
43606;SDS011;29197;44.788;10.366;2023-02-22T15:07:51;102.05;;;59.40;;
43606;SDS011;29197;44.788;10.366;2023-02-22T15:10:42;93.40;;;56.13;;
43606;SDS011;29197;44.788;10.366;2023-02-22T15:13:32;118.20;;;66.78;;
43606;SDS011;29197;44.788;10.366;2023-02-22T15:16:20;110.95;;;63.78;;
43606;SDS011;29197;44.788;10.366;2023-02-22T15:19:10;115.40;;;65.88;;
43606;SDS011;29197;44.788;10.366;2023-02-22T15:22:00;112.45;;;65.13;;
43606;SDS011;29197;44.788;10.366;2023-02-22T15:24:55;96.40;;;57.35;;
43606;SDS011;29197;44.788;10.366;2023-02-22T15:27:46;117.33;;;67.30;;
43606;SDS011;29197;44.788;10.366;2023-02-22T15:30:35;107.68;;;64.22;;
43606;SDS011;29197;44.788;10.366;2023-02-22T15:33:27;99.88;;;58.40;;
43606;SDS011;29197;44.788;10.366;2023-02-22T15:36:24;90.80;;;54.70;;
43606;SDS011;29197;44.788;10.366;2023-02-22T15:39:17;98.10;;;56.90;;
43606;SDS011;29197;44.788;10.366;2023-02-22T15:42:07;114.28;;;64.05;;
43606;SDS011;29197;44.788;10.366;2023-02-22T15:45:06;96.88;;;58.13;;
43606;SDS011;29197;44.788;10.366;2023-02-22T15:47:59;97.63;;;57.47;;
43606;SDS011;29197;44.788;10.366;2023-02-22T15:50:58;108.57;;;63.10;;
43606;SDS011;29197;44.788;10.366;2023-02-22T15:53:52;106.45;;;60.70;;
43606;SDS011;29197;44.788;10.366;2023-02-22T15:56:40;87.53;;;52.67;;
43606;SDS011;29197;44.788;10.366;2023-02-22T15:59:39;86.43;;;52.45;;
43606;SDS011;29197;44.788;10.366;2023-02-22T16:02:33;94.35;;;55.15;;
43606;SDS011;29197;44.788;10.366;2023-02-22T16:05:28;93.13;;;55.97;;
43606;SDS011;29197;44.788;10.366;2023-02-22T16:08:24;90.30;;;54.57;;
43606;SDS011;29197;44.788;10.366;2023-02-22T16:11:20;94.30;;;56.43;;
43606;SDS011;29197;44.788;10.366;2023-02-22T16:14:23;92.78;;;54.47;;
43606;SDS011;29197;44.788;10.366;2023-02-22T16:17:22;100.37;;;58.23;;
43606;SDS011;29197;44.788;10.366;2023-02-22T16:20:34;94.93;;;55.70;;
43606;SDS011;29197;44.788;10.366;2023-02-22T16:23:24;95.00;;;55.67;;
43606;SDS011;29197;44.788;10.366;2023-02-22T16:26:19;85.83;;;51.57;;
43606;SDS011;29197;44.788;10.366;2023-02-22T16:29:23;85.25;;;50.85;;
43606;SDS011;29197;44.788;10.366;2023-02-22T16:32:13;91.13;;;54.50;;
43606;SDS011;29197;44.788;10.366;2023-02-22T16:35:01;90.30;;;54.30;;
43606;SDS011;29197;44.788;10.366;2023-02-22T16:37:54;88.13;;;53.50;;
43606;SDS011;29197;44.788;10.366;2023-02-22T16:40:45;122.05;;;68.20;;
43606;SDS011;29197;44.788;10.366;2023-02-22T16:43:36;111.22;;;65.75;;
43606;SDS011;29197;44.788;10.366;2023-02-22T16:46:24;93.15;;;56.35;;
43606;SDS011;29197;44.788;10.366;2023-02-22T16:49:13;96.40;;;56.20;;
43606;SDS011;29197;44.788;10.366;2023-02-22T16:52:02;87.50;;;51.65;;